createdAt,value
2016-05-18T00:00:36.978Z,1006.76
2016-05-18T00:01:37.043Z,1006.73
2016-05-18T00:02:37.078Z,1006.75
2016-05-18T00:03:37.142Z,1006.74
2016-05-18T00:04:37.192Z,1006.71
2016-05-18T00:05:37.227Z,1006.71
2016-05-18T00:06:37.291Z,1006.72
2016-05-18T00:07:37.341Z,1006.71
2016-05-18T00:08:37.390Z,1006.73
2016-05-18T00:09:37.440Z,1006.68
2016-05-18T00:10:37.490Z,1006.69
2016-05-18T00:11:37.539Z,1006.65
2016-05-18T00:12:37.588Z,1006.67
2016-05-18T00:13:37.638Z,1006.67
2016-05-18T00:14:37.672Z,1006.69
2016-05-18T00:15:37.737Z,1006.67
2016-05-18T00:16:37.787Z,1006.66
2016-05-18T00:17:37.837Z,1006.67
2016-05-18T00:18:37.887Z,1006.66
2016-05-18T00:19:37.935Z,1006.64
2016-05-18T00:20:37.985Z,1006.64
2016-05-18T00:21:38.034Z,1006.62
2016-05-18T00:22:38.084Z,1006.64
2016-05-18T00:23:38.165Z,1006.65
2016-05-18T00:24:38.183Z,1006.65
2016-05-18T00:25:38.234Z,1006.64
2016-05-18T00:26:38.267Z,1006.6
2016-05-18T00:27:38.331Z,1006.66
2016-05-18T00:28:38.381Z,1006.65
2016-05-18T00:29:38.431Z,1006.61
2016-05-18T00:30:38.481Z,1006.6
2016-05-18T00:31:38.530Z,1006.58
2016-05-18T00:32:38.581Z,1006.59
2016-05-18T00:33:38.630Z,1006.57
2016-05-18T00:34:38.679Z,1006.54
2016-05-18T00:35:38.728Z,1006.53
2016-05-18T00:36:38.778Z,1006.49
2016-05-18T00:37:38.827Z,1006.48
2016-05-18T00:38:38.878Z,1006.54
2016-05-18T00:39:38.911Z,1006.53
2016-05-18T00:40:38.976Z,1006.49
2016-05-18T00:41:39.027Z,1006.44
2016-05-18T00:42:39.076Z,1006.44
2016-05-18T00:43:39.124Z,1006.43
2016-05-18T00:44:39.175Z,1006.44
2016-05-18T00:45:39.224Z,1006.45
2016-05-18T00:46:39.274Z,1006.38
2016-05-18T00:47:39.323Z,1006.4
2016-05-18T00:48:39.373Z,1006.43
2016-05-18T00:49:39.422Z,1006.41
2016-05-18T00:50:39.457Z,1006.42
2016-05-18T00:51:39.521Z,1006.43
2016-05-18T00:52:39.571Z,1006.41
2016-05-18T00:53:39.621Z,1006.44
2016-05-18T00:54:39.670Z,1006.4
2016-05-18T00:55:39.720Z,1006.43
2016-05-18T00:56:39.769Z,1006.37
2016-05-18T00:57:39.819Z,1006.39
2016-05-18T00:58:39.869Z,1006.38
2016-05-18T00:59:39.918Z,1006.42
2016-05-18T01:00:39.967Z,1006.37
2016-05-18T01:01:40.017Z,1006.38
2016-05-18T01:02:40.067Z,1006.35
2016-05-18T01:03:40.100Z,1006.36
2016-05-18T01:04:40.166Z,1006.29
2016-05-18T01:05:40.216Z,1006.35
2016-05-18T01:06:40.266Z,1006.34
2016-05-18T01:07:40.314Z,1006.35
2016-05-18T01:08:40.364Z,1006.32
2016-05-18T01:09:40.414Z,1006.34
2016-05-18T01:10:40.463Z,1006.33
2016-05-18T01:11:40.513Z,1006.34
2016-05-18T01:12:40.562Z,1006.34
2016-05-18T01:13:40.613Z,1006.3
2016-05-18T01:14:40.662Z,1006.29
2016-05-18T01:15:40.710Z,1006.27
2016-05-18T01:16:40.760Z,1006.31
2016-05-18T01:17:40.810Z,1006.33
2016-05-18T01:18:40.860Z,1006.3
2016-05-18T01:19:40.909Z,1006.29
2016-05-18T01:20:40.960Z,1006.29
2016-05-18T01:21:41.009Z,1006.28
2016-05-18T01:22:41.059Z,1006.28
2016-05-18T01:23:41.107Z,1006.23
2016-05-18T01:24:41.156Z,1006.27
2016-05-18T01:25:41.207Z,1006.26
2016-05-18T01:26:41.240Z,1006.24
2016-05-18T01:27:41.306Z,1006.24
2016-05-18T01:28:41.356Z,1006.25
2016-05-18T01:29:41.389Z,1006.27
2016-05-18T01:30:41.455Z,1006.23
2016-05-18T01:31:41.503Z,1006.22
2016-05-18T01:32:41.554Z,1006.2
2016-05-18T01:33:41.603Z,1006.18
2016-05-18T01:34:41.653Z,1006.16
2016-05-18T01:35:41.702Z,1006.17
2016-05-18T01:36:41.752Z,1006.17
2016-05-18T01:37:41.802Z,1006.19
2016-05-18T01:38:41.851Z,1006.18
2016-05-18T01:39:41.900Z,1006.17
2016-05-18T01:40:41.950Z,1006.18
2016-05-18T01:41:42.000Z,1006.2
2016-05-18T01:42:42.049Z,1006.17
2016-05-18T01:43:42.083Z,1006.18
2016-05-18T01:44:42.149Z,1006.13
2016-05-18T01:45:42.182Z,1006.1
2016-05-18T01:46:42.248Z,1006.1
2016-05-18T01:47:42.282Z,1006.14
2016-05-18T01:48:42.347Z,1006.13
2016-05-18T01:49:42.396Z,1006.1
2016-05-18T01:50:42.446Z,1006.11
2016-05-18T01:51:42.495Z,1006.08
2016-05-18T01:52:42.576Z,1006.09
2016-05-18T01:53:42.595Z,1006.08
2016-05-18T01:54:42.644Z,1006.07
2016-05-18T01:55:42.693Z,1006.07
2016-05-18T01:56:42.743Z,1006.05
2016-05-18T01:57:42.793Z,1006
2016-05-18T01:58:42.842Z,1006.03
2016-05-18T01:59:42.892Z,1006.03
2016-05-18T02:00:42.942Z,1005.98
2016-05-18T02:01:42.991Z,1006.04
2016-05-18T02:02:43.042Z,1006
2016-05-18T02:03:43.090Z,1005.97
2016-05-18T02:04:43.139Z,1005.93
2016-05-18T02:05:43.189Z,1005.91
2016-05-18T02:06:43.223Z,1005.89
2016-05-18T02:07:43.288Z,1005.9
2016-05-18T02:08:43.338Z,1005.89
2016-05-18T02:09:43.372Z,1005.92
2016-05-18T02:10:43.437Z,1005.88
2016-05-18T02:11:43.472Z,1005.86
2016-05-18T02:12:43.536Z,1005.85
2016-05-18T02:13:43.585Z,1005.85
2016-05-18T02:14:43.636Z,1005.86
2016-05-18T02:15:43.685Z,1005.83
2016-05-18T02:16:43.735Z,1005.82
2016-05-18T02:17:43.784Z,1005.83
2016-05-18T02:18:43.834Z,1005.82
2016-05-18T02:19:43.883Z,1005.82
2016-05-18T02:20:43.917Z,1005.8
2016-05-18T02:21:43.982Z,1005.8
2016-05-18T02:22:44.032Z,1005.77
2016-05-18T02:23:44.082Z,1005.75
2016-05-18T02:24:44.131Z,1005.76
2016-05-18T02:25:44.181Z,1005.75
2016-05-18T02:26:44.231Z,1005.71
2016-05-18T02:27:44.279Z,1005.7
2016-05-18T02:28:44.314Z,1005.7
2016-05-18T02:29:44.378Z,1005.67
2016-05-18T02:30:44.429Z,1005.68
2016-05-18T02:31:44.478Z,1005.65
2016-05-18T02:32:44.528Z,1005.61
2016-05-18T02:33:44.577Z,1005.65
2016-05-18T02:34:44.627Z,1005.59
2016-05-18T02:35:44.676Z,1005.56
2016-05-18T02:36:44.726Z,1005.6
2016-05-18T02:37:44.775Z,1005.57
2016-05-18T02:38:44.825Z,1005.57
2016-05-18T02:39:44.875Z,1005.55
2016-05-18T02:40:44.924Z,1005.53
2016-05-18T02:41:44.974Z,1005.52
2016-05-18T02:42:45.024Z,1005.49
2016-05-18T02:43:45.072Z,1005.48
2016-05-18T02:44:45.122Z,1005.44
2016-05-18T02:45:45.171Z,1005.47
2016-05-18T02:46:45.222Z,1005.4
2016-05-18T02:47:45.271Z,1005.41
2016-05-18T02:48:45.321Z,1005.4
2016-05-18T02:49:45.370Z,1005.39
2016-05-18T02:50:45.421Z,1005.39
2016-05-18T02:51:45.469Z,1005.39
2016-05-18T02:52:45.518Z,1005.4
2016-05-18T02:53:45.569Z,1005.4
2016-05-18T02:54:45.618Z,1005.4
2016-05-18T02:55:45.667Z,1005.41
2016-05-18T02:56:45.717Z,1005.36
2016-05-18T02:57:45.767Z,1005.38
2016-05-18T02:58:45.817Z,1005.36
2016-05-18T02:59:45.865Z,1005.37
2016-05-18T03:00:45.915Z,1005.36
2016-05-18T03:01:45.965Z,1005.33
2016-05-18T03:02:46.014Z,1005.33
2016-05-18T03:03:46.064Z,1005.32
2016-05-18T03:04:46.114Z,1005.32
2016-05-18T03:05:46.164Z,1005.28
2016-05-18T03:06:46.213Z,1005.24
2016-05-18T03:07:46.262Z,1005.24
2016-05-18T03:08:46.311Z,1005.2
2016-05-18T03:09:46.361Z,1005.22
2016-05-18T03:10:46.411Z,1005.16
2016-05-18T03:11:46.460Z,1005.17
2016-05-18T03:12:46.511Z,1005.16
2016-05-18T03:13:46.560Z,1005.15
2016-05-18T03:14:46.609Z,1005.15
2016-05-18T03:15:46.643Z,1005.18
2016-05-18T03:16:46.708Z,1005.19
2016-05-18T03:17:46.758Z,1005.15
2016-05-18T03:18:46.807Z,1005.14
2016-05-18T03:19:46.858Z,1005.17
2016-05-18T03:20:46.907Z,1005.14
2016-05-18T03:21:46.956Z,1005.14
2016-05-18T03:22:47.006Z,1005.12
2016-05-18T03:23:47.054Z,1005.17
2016-05-18T03:24:47.090Z,1005.12
2016-05-18T03:25:47.154Z,1005.08
2016-05-18T03:26:47.204Z,1005.09
2016-05-18T03:27:47.254Z,1005.12
2016-05-18T03:28:47.303Z,1005.14
2016-05-18T03:29:47.337Z,1005.14
2016-05-18T03:30:47.403Z,1005.15
2016-05-18T03:31:47.452Z,1005.12
2016-05-18T03:32:47.501Z,1005.11
2016-05-18T03:33:47.536Z,1005.06
2016-05-18T03:34:47.600Z,1005.09
2016-05-18T03:35:47.650Z,1005.06
2016-05-18T03:36:47.700Z,1005.08
2016-05-18T03:37:47.749Z,1005.08
2016-05-18T03:38:47.800Z,1005.03
2016-05-18T03:39:47.847Z,1005.02
2016-05-18T03:40:47.897Z,1005.05
2016-05-18T03:41:47.932Z,1005.03
2016-05-18T03:42:47.997Z,1005.03
2016-05-18T03:43:48.047Z,1004.99
2016-05-18T03:44:48.097Z,1004.95
2016-05-18T03:45:48.146Z,1004.98
2016-05-18T03:46:48.196Z,1004.96
2016-05-18T03:47:48.245Z,1004.98
2016-05-18T03:48:48.294Z,1004.94
2016-05-18T03:49:48.344Z,1004.88
2016-05-18T03:50:48.378Z,1004.94
2016-05-18T03:51:48.443Z,1004.94
2016-05-18T03:52:48.915Z,1004.94
2016-05-18T03:53:48.542Z,1004.91
2016-05-18T03:54:48.593Z,1004.95
2016-05-18T03:55:48.626Z,1004.94
2016-05-18T03:56:48.691Z,1004.96
2016-05-18T03:57:48.741Z,1004.96
2016-05-18T03:58:48.790Z,1004.96
2016-05-18T03:59:48.840Z,1004.96
2016-05-18T04:00:48.889Z,1004.99
2016-05-18T04:01:48.939Z,1004.95
2016-05-18T04:02:48.989Z,1004.97
2016-05-18T04:03:49.038Z,1005.01
2016-05-18T04:04:49.072Z,1004.95
2016-05-18T04:05:49.122Z,1004.95
2016-05-18T04:06:49.187Z,1004.96
2016-05-18T04:07:49.689Z,1004.9
2016-05-18T04:08:49.286Z,1004.93
2016-05-18T04:09:49.336Z,1004.98
2016-05-18T04:10:49.385Z,1004.94
2016-05-18T04:11:49.434Z,1004.95
2016-05-18T04:12:49.484Z,1004.92
2016-05-18T04:13:49.534Z,1004.91
2016-05-18T04:14:49.583Z,1004.92
2016-05-18T04:15:49.633Z,1004.88
2016-05-18T04:16:49.682Z,1004.91
2016-05-18T04:17:49.732Z,1004.91
2016-05-18T04:18:49.782Z,1004.89
2016-05-18T04:19:49.830Z,1004.87
2016-05-18T04:20:49.881Z,1004.86
2016-05-18T04:21:49.930Z,1004.86
2016-05-18T04:22:50.277Z,1004.85
2016-05-18T04:23:50.029Z,1004.81
2016-05-18T04:24:50.079Z,1004.81
2016-05-18T04:25:50.129Z,1004.84
2016-05-18T04:26:50.178Z,1004.86
2016-05-18T04:27:50.228Z,1004.84
2016-05-18T04:28:50.262Z,1004.86
2016-05-18T04:29:50.326Z,1004.89
2016-05-18T04:30:50.376Z,1004.87
2016-05-18T04:31:50.425Z,1004.86
2016-05-18T04:32:50.475Z,1004.87
2016-05-18T04:33:50.525Z,1004.88
2016-05-18T04:34:50.575Z,1004.85
2016-05-18T04:35:50.624Z,1004.89
2016-05-18T04:36:50.659Z,1004.88
2016-05-18T04:37:50.723Z,1004.88
2016-05-18T04:38:50.773Z,1004.9
2016-05-18T04:39:50.807Z,1004.89
2016-05-18T04:40:50.856Z,1004.89
2016-05-18T04:41:50.922Z,1004.89
2016-05-18T04:42:50.971Z,1004.89
2016-05-18T04:43:51.020Z,1004.89
2016-05-18T04:44:51.070Z,1004.87
2016-05-18T04:45:51.120Z,1004.84
2016-05-18T04:46:51.169Z,1004.82
2016-05-18T04:47:51.219Z,1004.8
2016-05-18T04:48:51.268Z,1004.77
2016-05-18T04:49:51.318Z,1004.84
2016-05-18T04:50:51.368Z,1004.81
2016-05-18T04:51:51.417Z,1004.8
2016-05-18T04:52:51.467Z,1004.82
2016-05-18T04:53:51.516Z,1004.84
2016-05-18T04:54:51.550Z,1004.81
2016-05-18T04:55:51.615Z,1004.77
2016-05-18T04:56:51.649Z,1004.83
2016-05-18T04:57:51.714Z,1004.8
2016-05-18T04:58:51.765Z,1004.8
2016-05-18T04:59:51.798Z,1004.78
2016-05-18T05:00:51.863Z,1004.77
2016-05-18T05:01:51.913Z,1004.79
2016-05-18T05:02:51.962Z,1004.81
2016-05-18T05:03:52.012Z,1004.8
2016-05-18T05:04:52.061Z,1004.82
2016-05-18T05:05:52.111Z,1004.8
2016-05-18T05:06:52.161Z,1004.79
2016-05-18T05:07:52.209Z,1004.84
2016-05-18T05:08:52.244Z,1004.79
2016-05-18T05:09:52.310Z,1004.81
2016-05-18T05:10:52.342Z,1004.8
2016-05-18T05:11:52.408Z,1004.75
2016-05-18T05:12:52.458Z,1004.81
2016-05-18T05:13:52.492Z,1004.81
2016-05-18T05:14:52.541Z,1004.82
2016-05-18T05:15:52.606Z,1004.86
2016-05-18T05:16:52.641Z,1004.8
2016-05-18T05:17:52.691Z,1004.83
2016-05-18T05:18:52.772Z,1004.83
2016-05-18T05:19:52.805Z,1004.78
2016-05-18T05:20:52.854Z,1004.78
2016-05-18T05:21:52.904Z,1004.77
2016-05-18T05:22:52.938Z,1004.81
2016-05-18T05:23:53.003Z,1004.85
2016-05-18T05:24:53.038Z,1004.81
2016-05-18T05:25:53.087Z,1004.83
2016-05-18T05:26:53.152Z,1004.84
2016-05-18T05:27:53.201Z,1004.87
2016-05-18T05:28:53.252Z,1004.83
2016-05-18T05:29:53.301Z,1004.83
2016-05-18T05:30:53.350Z,1004.82
2016-05-18T05:31:53.399Z,1004.79
2016-05-18T05:32:53.449Z,1004.86
2016-05-18T05:33:53.499Z,1004.78
2016-05-18T05:34:53.532Z,1004.82
2016-05-18T05:35:53.582Z,1004.85
2016-05-18T05:36:53.631Z,1004.8
2016-05-18T05:37:53.698Z,1004.81
2016-05-18T05:38:53.747Z,1004.83
2016-05-18T05:39:53.781Z,1004.83
2016-05-18T05:40:53.846Z,1004.81
2016-05-18T05:41:53.895Z,1004.85
2016-05-18T05:42:53.945Z,1004.84
2016-05-18T05:43:53.994Z,1004.87
2016-05-18T05:44:54.044Z,1004.85
2016-05-18T05:45:54.094Z,1004.81
2016-05-18T05:46:54.143Z,1004.88
2016-05-18T05:47:54.177Z,1004.86
2016-05-18T05:48:54.227Z,1004.84
2016-05-18T05:49:54.276Z,1004.9
2016-05-18T05:50:54.341Z,1004.89
2016-05-18T05:51:54.375Z,1004.92
2016-05-18T05:52:54.440Z,1004.9
2016-05-18T05:53:54.490Z,1004.94
2016-05-18T05:54:54.540Z,1004.92
2016-05-18T05:55:54.574Z,1004.88
2016-05-18T05:56:54.639Z,1004.92
2016-05-18T05:57:54.689Z,1004.87
2016-05-18T05:58:54.722Z,1004.87
2016-05-18T05:59:54.787Z,1004.83
2016-05-18T06:00:54.821Z,1004.85
2016-05-18T06:01:54.887Z,1004.83
2016-05-18T06:02:54.937Z,1004.86
2016-05-18T06:03:54.970Z,1004.82
2016-05-18T06:04:55.035Z,1004.86
2016-05-18T06:05:55.085Z,1004.86
2016-05-18T06:06:55.118Z,1004.85
2016-05-18T06:07:55.184Z,1004.83
2016-05-18T06:08:55.234Z,1004.81
2016-05-18T06:09:55.283Z,1004.79
2016-05-18T06:10:55.317Z,1004.8
2016-05-18T06:11:55.382Z,1004.79
2016-05-18T06:12:55.416Z,1004.79
2016-05-18T06:13:55.481Z,1004.79
2016-05-18T06:14:55.514Z,1004.8
2016-05-18T06:15:55.580Z,1004.81
2016-05-18T06:16:55.631Z,1004.77
2016-05-18T06:17:55.680Z,1004.79
2016-05-18T06:18:55.729Z,1004.79
2016-05-18T06:19:55.778Z,1004.84
2016-05-18T06:20:55.813Z,1004.8
2016-05-18T06:21:55.878Z,1004.78
2016-05-18T06:22:55.927Z,1004.77
2016-05-18T06:23:55.961Z,1004.79
2016-05-18T06:24:56.011Z,1004.77
2016-05-18T06:25:56.076Z,1004.8
2016-05-18T06:26:56.110Z,1004.76
2016-05-18T06:27:56.175Z,1004.77
2016-05-18T06:28:56.224Z,1004.75
2016-05-18T06:29:56.259Z,1004.78
2016-05-18T06:30:56.324Z,1004.74
2016-05-18T06:31:56.373Z,1004.75
2016-05-18T06:32:56.407Z,1004.75
2016-05-18T06:33:56.473Z,1004.78
2016-05-18T06:34:56.523Z,1004.75
2016-05-18T06:35:56.557Z,1004.77
2016-05-18T06:36:56.621Z,1004.77
2016-05-18T06:37:56.671Z,1004.75
2016-05-18T06:38:56.704Z,1004.77
2016-05-18T06:39:56.754Z,1004.74
2016-05-18T06:40:56.820Z,1004.77
2016-05-18T06:41:56.870Z,1004.76
2016-05-18T06:42:56.919Z,1004.78
2016-05-18T06:43:56.967Z,1004.77
2016-05-18T06:44:57.017Z,1004.74
2016-05-18T06:45:57.067Z,1004.74
2016-05-18T06:46:57.101Z,1004.72
2016-05-18T06:47:57.150Z,1004.75
2016-05-18T06:48:57.217Z,1004.74
2016-05-18T06:49:57.250Z,1004.74
2016-05-18T06:50:57.300Z,1004.7
2016-05-18T06:51:57.350Z,1004.71
2016-05-18T06:52:57.602Z,1004.72
2016-05-18T06:53:57.464Z,1004.68
2016-05-18T06:54:57.498Z,1004.72
2016-05-18T06:55:57.563Z,1004.67
2016-05-18T06:56:57.613Z,1004.71
2016-05-18T06:57:57.647Z,1004.72
2016-05-18T06:58:57.696Z,1004.67
2016-05-18T06:59:57.761Z,1004.67
2016-05-18T07:00:57.796Z,1004.67
2016-05-18T07:01:57.845Z,1004.68
2016-05-18T07:02:57.894Z,1004.64
2016-05-18T07:03:57.944Z,1004.62
2016-05-18T07:04:58.009Z,1004.69
2016-05-18T07:05:58.043Z,1004.73
2016-05-18T07:06:58.093Z,1004.7
2016-05-18T07:07:58.564Z,1004.62
2016-05-18T07:08:58.192Z,1004.63
2016-05-18T07:09:58.242Z,1004.62
2016-05-18T07:10:58.307Z,1004.64
2016-05-18T07:11:58.340Z,1004.67
2016-05-18T07:12:58.390Z,1004.64
2016-05-18T07:13:58.455Z,1004.68
2016-05-18T07:14:58.506Z,1004.69
2016-05-18T07:15:58.539Z,1004.69
2016-05-18T07:16:58.604Z,1004.67
2016-05-18T07:17:58.638Z,1004.76
2016-05-18T07:18:58.703Z,1004.71
2016-05-18T07:19:58.737Z,1004.72
2016-05-18T07:20:58.786Z,1004.74
2016-05-18T07:21:58.852Z,1004.74
2016-05-18T07:22:58.902Z,1004.76
2016-05-18T07:23:58.935Z,1004.73
2016-05-18T07:24:59.000Z,1004.74
2016-05-18T07:25:59.050Z,1004.77
2016-05-18T07:26:59.084Z,1004.72
2016-05-18T07:27:59.149Z,1004.76
2016-05-18T07:28:59.183Z,1004.77
2016-05-18T07:29:59.233Z,1004.75
2016-05-18T07:30:59.283Z,1004.75
2016-05-18T07:31:59.348Z,1004.73
2016-05-18T07:32:59.382Z,1004.66
2016-05-18T07:33:59.431Z,1004.67
2016-05-18T07:34:59.496Z,1004.7
2016-05-18T07:35:59.530Z,1004.66
2016-05-18T07:36:59.580Z,1004.63
2016-05-18T07:38:00.020Z,1004.62
2016-05-18T07:38:59.679Z,1004.66
2016-05-18T07:39:59.728Z,1004.63
2016-05-18T07:40:59.810Z,1004.61
2016-05-18T07:41:59.828Z,1004.59
2016-05-18T07:42:59.877Z,1004.59
2016-05-18T07:43:59.942Z,1004.59
2016-05-18T07:44:59.976Z,1004.57
2016-05-18T07:46:00.042Z,1004.65
2016-05-18T07:47:00.092Z,1004.54
2016-05-18T07:48:00.125Z,1004.56
2016-05-18T07:49:00.190Z,1004.56
2016-05-18T07:50:00.239Z,1004.55
2016-05-18T07:51:00.273Z,1004.51
2016-05-18T07:52:00.339Z,1004.56
2016-05-18T07:53:00.388Z,1004.56
2016-05-18T07:54:00.422Z,1004.54
2016-05-18T07:55:00.472Z,1004.58
2016-05-18T07:56:00.522Z,1004.59
2016-05-18T07:57:00.586Z,1004.47
2016-05-18T07:58:00.636Z,1004.53
2016-05-18T07:59:00.669Z,1004.53
2016-05-18T08:00:00.736Z,1004.46
2016-05-18T08:01:00.786Z,1004.48
2016-05-18T08:02:00.819Z,1004.48
2016-05-18T08:03:00.869Z,1004.52
2016-05-18T08:04:00.933Z,1004.5
2016-05-18T08:05:00.983Z,1004.55
2016-05-18T08:06:01.018Z,1004.47
2016-05-18T08:07:01.082Z,1004.49
2016-05-18T08:08:01.132Z,1004.44
2016-05-18T08:09:01.182Z,1004.5
2016-05-18T08:10:01.232Z,1004.48
2016-05-18T08:11:01.281Z,1004.48
2016-05-18T08:12:01.330Z,1004.5
2016-05-18T08:13:01.364Z,1004.51
2016-05-18T08:14:01.429Z,1004.49
2016-05-18T08:15:01.479Z,1004.46
2016-05-18T08:16:01.512Z,1004.53
2016-05-18T08:17:01.562Z,1004.46
2016-05-18T08:18:01.627Z,1004.51
2016-05-18T08:19:01.677Z,1004.45
2016-05-18T08:20:01.711Z,1004.43
2016-05-18T08:21:01.776Z,1004.45
2016-05-18T08:22:01.811Z,1004.51
2016-05-18T08:23:02.157Z,1004.43
2016-05-18T08:24:01.925Z,1004.47
2016-05-18T08:25:01.975Z,1004.36
2016-05-18T08:26:02.025Z,1004.41
2016-05-18T08:27:02.074Z,1004.4
2016-05-18T08:28:02.133Z,1004.31
2016-05-18T08:29:02.226Z,1004.39
2016-05-18T08:30:02.317Z,1004.43
2016-05-18T08:31:02.393Z,1004.37
2016-05-18T08:32:02.501Z,1004.33
2016-05-18T08:33:02.586Z,1004.28
2016-05-18T08:34:02.635Z,1004.21
2016-05-18T08:35:02.717Z,1004.21
2016-05-18T08:36:02.765Z,1004.33
2016-05-18T08:37:02.846Z,1004.27
2016-05-18T08:38:02.908Z,1004.29
2016-05-18T08:39:02.963Z,1004.21
2016-05-18T08:40:03.018Z,1004.28
2016-05-18T08:41:03.073Z,1004.31
2016-05-18T08:42:03.128Z,1004.24
2016-05-18T08:43:03.183Z,1004.22
2016-05-18T08:44:03.234Z,1004.21
2016-05-18T08:45:03.286Z,1004.2
2016-05-18T08:46:03.338Z,1004.27
2016-05-18T08:47:03.390Z,1004.24
2016-05-18T08:48:03.441Z,1004.3
2016-05-18T08:49:03.492Z,1004.22
2016-05-18T08:50:03.542Z,1004.2
2016-05-18T08:51:03.592Z,1004.22
2016-05-18T08:52:03.642Z,1004.19
2016-05-18T08:53:04.177Z,1004.21
2016-05-18T08:54:03.742Z,1004.17
2016-05-18T08:55:03.792Z,1004.14
2016-05-18T08:56:03.842Z,1004.18
2016-05-18T08:57:03.891Z,1004.16
2016-05-18T08:58:03.941Z,1004.16
2016-05-18T08:59:03.990Z,1004.13
2016-05-18T09:00:04.039Z,1004.1
2016-05-18T09:01:04.089Z,1004.08
2016-05-18T09:02:04.138Z,1004.18
2016-05-18T09:03:04.188Z,1004.14
2016-05-18T09:04:04.238Z,1004.09
2016-05-18T09:05:04.288Z,1004.1
2016-05-18T09:06:04.337Z,1004.08
2016-05-18T09:07:04.402Z,1004.08
2016-05-18T09:08:04.435Z,1004.04
2016-05-18T09:09:04.485Z,1004.01
2016-05-18T09:10:04.535Z,1004.06
2016-05-18T09:11:04.585Z,1004
2016-05-18T09:12:04.634Z,1004
2016-05-18T09:13:04.699Z,1003.99
2016-05-18T09:14:04.734Z,1003.93
2016-05-18T09:15:04.783Z,1003.97
2016-05-18T09:16:04.848Z,1003.93
2016-05-18T09:17:04.882Z,1004.01
2016-05-18T09:18:04.932Z,1004.01
2016-05-18T09:19:04.981Z,1003.91
2016-05-18T09:20:05.031Z,1003.91
2016-05-18T09:21:05.080Z,1003.91
2016-05-18T09:22:05.130Z,1003.89
2016-05-18T09:23:05.195Z,1003.9
2016-05-18T09:24:05.229Z,1003.86
2016-05-18T09:25:05.294Z,1003.86
2016-05-18T09:26:05.328Z,1003.88
2016-05-18T09:27:05.394Z,1003.8
2016-05-18T09:28:05.427Z,1003.83
2016-05-18T09:29:05.477Z,1003.88
2016-05-18T09:30:05.541Z,1003.89
2016-05-18T09:31:05.591Z,1003.82
2016-05-18T09:32:05.625Z,1003.78
2016-05-18T09:33:05.691Z,1003.81
2016-05-18T09:34:05.740Z,1003.76
2016-05-18T09:35:05.774Z,1003.76
2016-05-18T09:36:05.840Z,1003.77
2016-05-18T09:37:05.873Z,1003.74
2016-05-18T09:38:05.923Z,1003.85
2016-05-18T09:39:05.988Z,1003.73
2016-05-18T09:40:06.022Z,1003.77
2016-05-18T09:41:06.087Z,1003.77
2016-05-18T09:42:06.137Z,1003.76
2016-05-18T09:43:06.170Z,1003.71
2016-05-18T09:44:06.236Z,1003.67
2016-05-18T09:45:06.285Z,1003.67
2016-05-18T09:46:06.320Z,1003.73
2016-05-18T09:47:06.369Z,1003.7
2016-05-18T09:48:06.434Z,1003.66
2016-05-18T09:49:06.484Z,1003.65
2016-05-18T09:50:06.517Z,1003.64
2016-05-18T09:51:06.583Z,1003.67
2016-05-18T09:52:06.633Z,1003.6
2016-05-18T09:53:06.682Z,1003.57
2016-05-18T09:54:06.716Z,1003.64
2016-05-18T09:55:06.781Z,1003.63
2016-05-18T09:56:06.831Z,1003.62
2016-05-18T09:57:06.865Z,1003.65
2016-05-18T09:58:06.930Z,1003.6
2016-05-18T09:59:06.980Z,1003.59
2016-05-18T10:00:07.013Z,1003.61
2016-05-18T10:01:07.063Z,1003.58
2016-05-18T10:02:07.128Z,1003.61
2016-05-18T10:03:07.194Z,1003.59
2016-05-18T10:04:07.227Z,1003.53
2016-05-18T10:05:07.277Z,1003.52
2016-05-18T10:06:07.327Z,1003.54
2016-05-18T10:07:07.376Z,1003.52
2016-05-18T10:08:07.504Z,1003.46
2016-05-18T10:09:07.475Z,1003.45
2016-05-18T10:10:07.524Z,1003.45
2016-05-18T10:11:07.574Z,1003.48
2016-05-18T10:12:07.624Z,1003.46
2016-05-18T10:13:07.673Z,1003.43
2016-05-18T10:14:07.723Z,1003.38
2016-05-18T10:15:07.773Z,1003.43
2016-05-18T10:16:07.822Z,1003.4
2016-05-18T10:17:07.871Z,1003.37
2016-05-18T10:18:07.921Z,1003.38
2016-05-18T10:19:07.971Z,1003.42
2016-05-18T10:20:08.020Z,1003.37
2016-05-18T10:21:08.070Z,1003.32
2016-05-18T10:22:08.120Z,1003.34
2016-05-18T10:23:08.325Z,1003.27
2016-05-18T10:24:08.219Z,1003.29
2016-05-18T10:25:08.268Z,1003.27
2016-05-18T10:26:08.317Z,1003.28
2016-05-18T10:27:08.367Z,1003.3
2016-05-18T10:28:08.417Z,1003.28
2016-05-18T10:29:08.466Z,1003.29
2016-05-18T10:30:08.516Z,1003.28
2016-05-18T10:31:08.566Z,1003.25
2016-05-18T10:32:08.616Z,1003.23
2016-05-18T10:33:08.664Z,1003.29
2016-05-18T10:34:08.714Z,1003.31
2016-05-18T10:35:08.764Z,1003.31
2016-05-18T10:36:08.814Z,1003.29
2016-05-18T10:37:08.879Z,1003.42
2016-05-18T10:38:08.912Z,1003.35
2016-05-18T10:39:08.962Z,1003.32
2016-05-18T10:40:09.027Z,1003.26
2016-05-18T10:41:09.077Z,1003.37
2016-05-18T10:42:09.111Z,1003.25
2016-05-18T10:43:09.176Z,1003.31
2016-05-18T10:44:09.210Z,1003.27
2016-05-18T10:45:09.276Z,1003.24
2016-05-18T10:46:09.324Z,1003.22
2016-05-18T10:47:09.359Z,1003.27
2016-05-18T10:48:09.424Z,1003.24
2016-05-18T10:49:09.474Z,1003.28
2016-05-18T10:50:09.507Z,1003.29
2016-05-18T10:51:09.556Z,1003.3
2016-05-18T10:52:09.623Z,1003.21
2016-05-18T10:53:09.687Z,1003.24
2016-05-18T10:54:09.706Z,1003.2
2016-05-18T10:55:09.771Z,1003.18
2016-05-18T10:56:09.805Z,1003.2
2016-05-18T10:57:09.854Z,1003.17
2016-05-18T10:58:09.920Z,1003.2
2016-05-18T10:59:09.969Z,1003.14
2016-05-18T11:00:10.003Z,1003.2
2016-05-18T11:01:10.069Z,1003.21
2016-05-18T11:02:10.118Z,1003.18
2016-05-18T11:03:10.167Z,1003.16
2016-05-18T11:04:10.217Z,1003.15
2016-05-18T11:05:10.266Z,1003.11
2016-05-18T11:06:10.316Z,1003.12
2016-05-18T11:07:10.366Z,1003.13
2016-05-18T11:08:10.416Z,1003.13
2016-05-18T11:09:10.465Z,1003.16
2016-05-18T11:10:10.513Z,1003.07
2016-05-18T11:11:10.549Z,1003.09
2016-05-18T11:12:10.613Z,1003.05
2016-05-18T11:13:10.663Z,1003.01
2016-05-18T11:14:10.697Z,1003.08
2016-05-18T11:15:10.762Z,1003.01
2016-05-18T11:16:10.811Z,1003.03
2016-05-18T11:17:10.862Z,1003.05
2016-05-18T11:18:10.895Z,1003.02
2016-05-18T11:19:10.960Z,1003.02
2016-05-18T11:20:11.009Z,1002.95
2016-05-18T11:21:11.059Z,1002.98
2016-05-18T11:22:11.109Z,1002.98
2016-05-18T11:23:11.159Z,1002.95
2016-05-18T11:24:11.208Z,1002.96
2016-05-18T11:25:11.258Z,1002.94
2016-05-18T11:26:11.307Z,1003.03
2016-05-18T11:27:11.356Z,1002.91
2016-05-18T11:28:11.407Z,1002.94
2016-05-18T11:29:11.456Z,1002.9
2016-05-18T11:30:11.505Z,1002.91
2016-05-18T11:31:11.555Z,1002.92
2016-05-18T11:32:11.605Z,1002.9
2016-05-18T11:33:11.654Z,1002.91
2016-05-18T11:34:11.703Z,1002.85
2016-05-18T11:35:11.753Z,1002.82
2016-05-18T11:36:11.803Z,1002.87
2016-05-18T11:37:11.852Z,1002.82
2016-05-18T11:38:11.918Z,1002.8
2016-05-18T11:39:11.952Z,1002.8
2016-05-18T11:40:12.001Z,1002.77
2016-05-18T11:41:12.066Z,1002.74
2016-05-18T11:42:12.116Z,1002.76
2016-05-18T11:43:12.150Z,1002.69
2016-05-18T11:44:12.215Z,1002.71
2016-05-18T11:45:12.265Z,1002.71
2016-05-18T11:46:12.298Z,1002.66
2016-05-18T11:47:12.363Z,1002.79
2016-05-18T11:48:12.398Z,1002.74
2016-05-18T11:49:12.447Z,1002.67
2016-05-18T11:50:12.513Z,1002.71
2016-05-18T11:51:12.546Z,1002.74
2016-05-18T11:52:12.595Z,1002.76
2016-05-18T11:53:12.771Z,1002.67
2016-05-18T11:54:12.695Z,1002.64
2016-05-18T11:55:12.745Z,1002.59
2016-05-18T11:56:12.809Z,1002.55
2016-05-18T11:57:12.844Z,1002.56
2016-05-18T11:58:12.925Z,1002.59
2016-05-18T11:59:12.958Z,1002.53
2016-05-18T12:00:13.008Z,1002.54
2016-05-18T12:01:13.058Z,1002.53
2016-05-18T12:02:13.091Z,1002.52
2016-05-18T12:03:13.141Z,1002.5
2016-05-18T12:04:13.206Z,1002.52
2016-05-18T12:05:13.241Z,1002.5
2016-05-18T12:06:13.289Z,1002.48
2016-05-18T12:07:13.355Z,1002.47
2016-05-18T12:08:13.389Z,1002.47
2016-05-18T12:09:13.438Z,1002.42